createdAt,value
2023-03-30T00:01:15.428Z,9.40
2023-03-30T00:03:44.154Z,9.40
2023-03-30T00:06:14.693Z,9.40
2023-03-30T00:08:42.074Z,9.40
2023-03-30T00:11:13.471Z,9.40
2023-03-30T00:13:40.912Z,9.50
2023-03-30T00:16:11.602Z,9.40
2023-03-30T00:18:42.509Z,9.50
2023-03-30T00:21:11.342Z,9.50
2023-03-30T00:23:39.690Z,9.50
2023-03-30T00:26:07.857Z,9.50
2023-03-30T00:28:35.238Z,9.50
2023-03-30T00:31:02.963Z,9.50
2023-03-30T00:33:44.875Z,9.50
2023-03-30T00:36:14.085Z,9.50
2023-03-30T00:38:41.435Z,9.50
2023-03-30T00:41:09.641Z,9.60
2023-03-30T00:43:59.420Z,9.60
2023-03-30T00:46:26.969Z,9.60
2023-03-30T00:48:58.204Z,9.60
2023-03-30T00:51:28.592Z,9.60
2023-03-30T00:54:01.982Z,9.60
2023-03-30T00:56:31.089Z,9.60
2023-03-30T00:58:58.826Z,9.60
2023-03-30T01:01:29.139Z,9.60
2023-03-30T01:04:00.192Z,9.60
2023-03-30T01:06:30.393Z,9.60
2023-03-30T01:08:58.618Z,9.60
2023-03-30T01:11:27.005Z,9.60
2023-03-30T01:14:04.798Z,9.60
2023-03-30T01:16:46.932Z,9.60
2023-03-30T01:19:39.912Z,9.60
2023-03-30T01:22:27.354Z,9.60
2023-03-30T01:25:15.490Z,9.50
2023-03-30T01:28:06.848Z,9.50
2023-03-30T01:30:34.178Z,9.50
2023-03-30T01:33:19.567Z,9.50
2023-03-30T01:36:20.224Z,9.50
2023-03-30T01:39:09.731Z,9.50
2023-03-30T01:41:41.973Z,9.50
2023-03-30T01:44:21.539Z,9.50
2023-03-30T01:46:53.105Z,9.50
2023-03-30T01:50:03.288Z,9.50
2023-03-30T01:52:41.483Z,9.60
2023-03-30T01:55:17.595Z,9.60
2023-03-30T01:58:00.991Z,9.60
2023-03-30T02:00:29.519Z,9.60
2023-03-30T02:03:01.940Z,9.70
2023-03-30T02:05:31.689Z,9.70
2023-03-30T02:08:06.628Z,9.70
2023-03-30T02:10:36.572Z,9.70
2023-03-30T02:13:05.980Z,9.70
2023-03-30T02:15:38.789Z,9.70
2023-03-30T02:18:06.536Z,9.70
2023-03-30T02:20:34.901Z,9.70
2023-03-30T02:23:03.828Z,9.70
2023-03-30T02:25:31.209Z,9.70
2023-03-30T02:27:58.623Z,9.80
2023-03-30T02:30:25.954Z,9.70
2023-03-30T02:32:55.576Z,9.70
2023-03-30T02:35:29.677Z,9.70
2023-03-30T02:38:30.125Z,9.70
2023-03-30T02:41:32.810Z,9.70
2023-03-30T02:44:45.750Z,9.70
2023-03-30T02:47:29.196Z,9.70
2023-03-30T02:50:00.332Z,9.60
2023-03-30T02:52:39.415Z,9.60
2023-03-30T02:55:35.043Z,9.60
2023-03-30T02:58:26.196Z,9.60
2023-03-30T03:01:10.354Z,9.60
2023-03-30T03:03:43.891Z,9.60
2023-03-30T03:06:15.015Z,9.50
2023-03-30T03:08:45.039Z,9.50
2023-03-30T03:11:12.568Z,9.50
2023-03-30T03:13:39.904Z,9.50
2023-03-30T03:16:11.247Z,9.50
2023-03-30T03:18:42.458Z,9.50
2023-03-30T03:21:11.364Z,9.50
2023-03-30T03:23:38.857Z,9.50
2023-03-30T03:26:06.967Z,9.50
2023-03-30T03:28:36.083Z,9.50
2023-03-30T03:31:03.875Z,9.50
2023-03-30T03:33:33.980Z,9.40
2023-03-30T03:36:01.309Z,9.40
2023-03-30T03:38:29.445Z,9.40
2023-03-30T03:40:58.611Z,9.50
2023-03-30T03:43:26.260Z,9.40
2023-03-30T03:45:54.194Z,9.50
2023-03-30T03:48:23.896Z,9.40
2023-03-30T03:50:53.203Z,9.40
2023-03-30T03:53:20.769Z,9.40
2023-03-30T03:55:48.205Z,9.40
2023-03-30T03:58:16.709Z,9.40
2023-03-30T04:00:44.413Z,9.40
2023-03-30T04:03:12.588Z,9.40
2023-03-30T04:05:41.096Z,9.40
2023-03-30T04:08:11.305Z,9.40
2023-03-30T04:10:42.200Z,9.40
2023-03-30T04:13:09.482Z,9.30
2023-03-30T04:15:37.057Z,9.30
2023-03-30T04:18:05.597Z,9.30
2023-03-30T04:20:33.017Z,9.30
2023-03-30T04:23:02.316Z,9.30
2023-03-30T04:25:29.772Z,9.30
2023-03-30T04:27:57.464Z,9.30
2023-03-30T04:30:25.292Z,9.30
2023-03-30T04:33:03.059Z,9.30
2023-03-30T04:35:34.784Z,9.30
2023-03-30T04:38:02.676Z,9.30
2023-03-30T04:40:30.662Z,9.30
2023-03-30T04:43:02.980Z,9.30
2023-03-30T04:45:31.287Z,9.30
2023-03-30T04:47:58.674Z,9.30
2023-03-30T04:50:26.563Z,9.30
2023-03-30T04:52:53.781Z,9.30
2023-03-30T04:55:20.933Z,9.30
2023-03-30T04:57:48.353Z,9.30
2023-03-30T05:00:16.310Z,9.30
2023-03-30T05:02:43.603Z,9.30
2023-03-30T05:05:11.091Z,9.30
2023-03-30T05:07:38.318Z,9.30
2023-03-30T05:10:05.691Z,9.20
2023-03-30T05:12:32.971Z,9.20
2023-03-30T05:15:00.596Z,9.20
2023-03-30T05:17:27.906Z,9.20
2023-03-30T05:19:55.121Z,9.20
2023-03-30T05:22:22.296Z,9.20
2023-03-30T05:24:49.407Z,9.20
2023-03-30T05:27:16.517Z,9.20
2023-03-30T05:29:43.879Z,9.20
2023-03-30T05:32:11.249Z,9.20
2023-03-30T05:34:39.035Z,9.30
2023-03-30T05:37:06.499Z,9.30
2023-03-30T05:39:33.699Z,9.30
2023-03-30T05:42:01.940Z,9.30
2023-03-30T05:44:29.120Z,9.40
2023-03-30T05:46:59.050Z,9.40
2023-03-30T05:49:26.604Z,9.40
2023-03-30T05:51:53.936Z,9.40
2023-03-30T05:54:21.318Z,9.40
2023-03-30T05:56:49.862Z,9.50
2023-03-30T05:59:19.624Z,9.40
2023-03-30T06:01:47.007Z,9.50
2023-03-30T06:04:14.309Z,9.50
2023-03-30T06:06:41.535Z,9.50
2023-03-30T06:09:10.551Z,9.50
2023-03-30T06:11:37.966Z,9.60
2023-03-30T06:14:05.201Z,9.50
2023-03-30T06:16:32.856Z,9.60
2023-03-30T06:18:59.972Z,9.60
2023-03-30T06:21:27.194Z,9.60
2023-03-30T06:23:54.773Z,9.60
2023-03-30T06:26:22.176Z,9.70
2023-03-30T06:28:49.305Z,9.70
2023-03-30T06:31:16.910Z,9.70
2023-03-30T06:33:45.422Z,9.80
2023-03-30T06:36:14.569Z,9.80
2023-03-30T06:38:43.937Z,9.80
2023-03-30T06:41:12.904Z,9.90
2023-03-30T06:43:40.481Z,9.90
2023-03-30T06:46:08.475Z,10.00
2023-03-30T06:48:36.052Z,10.00
2023-03-30T06:51:04.801Z,10.00
2023-03-30T06:53:32.795Z,10.10
2023-03-30T06:56:00.837Z,10.10
2023-03-30T06:58:31.760Z,10.10
2023-03-30T07:00:59.370Z,10.10
2023-03-30T07:03:27.154Z,10.20
2023-03-30T07:05:54.468Z,10.20
2023-03-30T07:08:21.888Z,10.20
2023-03-30T07:10:49.448Z,10.20
2023-03-30T07:13:17.295Z,10.30
2023-03-30T07:15:46.080Z,10.30
2023-03-30T07:18:13.748Z,10.30
2023-03-30T07:20:41.164Z,10.30
2023-03-30T07:23:08.808Z,10.40
2023-03-30T07:25:36.126Z,10.40
2023-03-30T07:28:06.744Z,10.50
2023-03-30T07:30:34.966Z,10.60
2023-03-30T07:33:03.157Z,10.60
2023-03-30T07:35:30.622Z,10.70
2023-03-30T07:38:03.215Z,10.80
2023-03-30T07:40:31.413Z,10.80
2023-03-30T07:42:59.284Z,10.90
2023-03-30T07:45:27.228Z,11.00
2023-03-30T07:47:54.834Z,11.10
2023-03-30T07:50:23.024Z,11.10
2023-03-30T07:52:51.886Z,11.10
2023-03-30T07:55:19.236Z,11.20
2023-03-30T07:57:46.840Z,11.30
2023-03-30T08:00:14.886Z,11.30
2023-03-30T08:02:42.797Z,11.50
2023-03-30T08:05:10.263Z,11.50
2023-03-30T08:07:41.579Z,11.60
2023-03-30T08:10:09.344Z,11.60
2023-03-30T08:12:36.749Z,11.60
2023-03-30T08:15:05.466Z,11.70
2023-03-30T08:17:32.754Z,11.70
2023-03-30T08:20:02.121Z,11.70
2023-03-30T08:22:29.371Z,11.70
2023-03-30T08:24:57.333Z,11.80
2023-03-30T08:27:24.512Z,11.80
2023-03-30T08:29:54.562Z,11.80
2023-03-30T08:32:21.799Z,11.90
2023-03-30T08:34:49.097Z,11.90
2023-03-30T08:37:16.573Z,11.90
2023-03-30T08:39:43.841Z,12.00
2023-03-30T08:42:26.501Z,12.00
2023-03-30T08:44:57.532Z,12.00
2023-03-30T08:47:35.190Z,12.10
2023-03-30T08:50:19.396Z,12.10
2023-03-30T08:52:47.198Z,12.10
2023-03-30T08:55:28.268Z,12.10
2023-03-30T08:58:11.669Z,12.10
2023-03-30T09:00:49.487Z,12.10
2023-03-30T09:03:41.510Z,12.10
2023-03-30T09:06:26.160Z,12.20
2023-03-30T09:08:53.767Z,12.20
2023-03-30T09:11:33.715Z,12.20
2023-03-30T09:14:04.857Z,12.30
2023-03-30T09:16:57.765Z,12.30
2023-03-30T09:19:47.344Z,12.40
2023-03-30T09:22:16.460Z,12.40
2023-03-30T09:24:43.827Z,12.50
2023-03-30T09:27:43.732Z,12.60
2023-03-30T09:30:25.301Z,12.70
2023-03-30T09:33:04.032Z,12.70
2023-03-30T09:35:41.618Z,12.80
2023-03-30T09:38:13.789Z,12.80
2023-03-30T09:41:12.147Z,12.90
2023-03-30T09:43:44.780Z,12.90
2023-03-30T09:46:13.165Z,13.00
2023-03-30T09:48:45.719Z,13.10
2023-03-30T09:51:17.527Z,13.20
2023-03-30T09:53:46.882Z,13.30
2023-03-30T09:56:21.470Z,13.40
2023-03-30T09:58:49.012Z,13.50
2023-03-30T10:01:20.474Z,13.60
2023-03-30T10:04:11.350Z,13.70
2023-03-30T10:06:46.981Z,13.80
2023-03-30T10:09:14.531Z,13.90
2023-03-30T10:11:48.422Z,13.90
2023-03-30T10:14:29.032Z,14.00
2023-03-30T10:16:57.192Z,14.10
2023-03-30T10:19:25.319Z,14.10
2023-03-30T10:21:59.105Z,14.20
2023-03-30T10:24:32.109Z,14.20
2023-03-30T10:27:17.458Z,14.30
2023-03-30T10:29:50.950Z,14.40
2023-03-30T10:32:21.791Z,14.40
2023-03-30T10:34:55.276Z,14.50
2023-03-30T10:37:38.900Z,14.60
2023-03-30T10:40:18.840Z,14.70
2023-03-30T10:42:48.712Z,14.80
2023-03-30T10:45:43.070Z,14.80
2023-03-30T10:48:28.709Z,14.90
2023-03-30T10:51:27.876Z,15.00
2023-03-30T10:54:28.973Z,15.00
2023-03-30T10:57:11.900Z,15.00
2023-03-30T11:00:10.868Z,14.90
2023-03-30T11:03:09.400Z,14.90
2023-03-30T11:05:41.515Z,14.80
2023-03-30T11:08:15.491Z,14.70
2023-03-30T11:10:47.215Z,14.70
2023-03-30T11:13:18.963Z,14.70
2023-03-30T11:16:00.644Z,14.70
2023-03-30T11:18:54.033Z,14.80
2023-03-30T11:21:50.602Z,14.90
2023-03-30T11:24:23.162Z,14.90
2023-03-30T11:27:01.804Z,15.00
2023-03-30T11:29:39.264Z,15.00
2023-03-30T11:32:15.546Z,15.00
2023-03-30T11:35:14.179Z,15.00
2023-03-30T11:37:58.963Z,15.10
2023-03-30T11:40:28.855Z,15.20
2023-03-30T11:42:56.767Z,15.30
2023-03-30T11:45:39.948Z,15.40
2023-03-30T11:48:25.134Z,15.50
2023-03-30T11:51:37.086Z,15.50
2023-03-30T11:54:22.604Z,15.60
2023-03-30T11:57:18.748Z,15.70
2023-03-30T11:59:51.873Z,15.80
2023-03-30T12:02:28.409Z,15.90
2023-03-30T12:05:10.503Z,16.00
2023-03-30T12:07:59.578Z,16.00
2023-03-30T12:10:42.828Z,16.10
2023-03-30T12:13:16.190Z,16.20
2023-03-30T12:16:12.499Z,16.20
2023-03-30T12:19:10.578Z,16.30
2023-03-30T12:21:48.904Z,16.30
2023-03-30T12:24:35.798Z,16.30
2023-03-30T12:27:06.869Z,16.40
2023-03-30T12:32:26.980Z,16.60
2023-03-30T12:34:57.001Z,16.60
2023-03-30T12:37:30.732Z,16.60
2023-03-30T12:40:26.353Z,16.50
2023-03-30T12:43:19.142Z,16.50
2023-03-30T12:46:02.365Z,16.40
2023-03-30T12:48:56.685Z,16.30
2023-03-30T12:52:02.550Z,16.20
2023-03-30T12:54:34.676Z,16.10
2023-03-30T12:57:18.041Z,16.00
2023-03-30T13:00:08.206Z,16.00
2023-03-30T13:03:17.146Z,15.80
2023-03-30T13:05:45.488Z,15.70
2023-03-30T13:08:29.977Z,15.50
2023-03-30T13:11:16.840Z,15.40
2023-03-30T13:13:55.332Z,15.20
2023-03-30T13:16:51.538Z,15.10
2023-03-30T13:19:28.459Z,15.00
2023-03-30T13:22:12.545Z,14.80
2023-03-30T13:24:46.309Z,14.80
2023-03-30T13:27:19.674Z,14.70
2023-03-30T13:29:56.687Z,14.80
2023-03-30T13:32:45.808Z,14.80
2023-03-30T13:35:31.593Z,14.90
2023-03-30T13:38:11.848Z,14.90
2023-03-30T13:41:04.570Z,15.00
2023-03-30T13:43:56.965Z,15.00
2023-03-30T13:46:53.655Z,15.10
2023-03-30T13:49:44.227Z,15.10
2023-03-30T13:52:25.242Z,15.10
2023-03-30T13:54:53.051Z,15.10
2023-03-30T13:57:24.936Z,15.00
2023-03-30T14:00:09.340Z,15.00
2023-03-30T14:02:40.428Z,14.90
2023-03-30T14:05:28.230Z,14.90
2023-03-30T14:07:58.829Z,14.90
2023-03-30T14:10:27.364Z,15.00
2023-03-30T14:12:56.970Z,15.10
2023-03-30T14:15:35.527Z,15.10
2023-03-30T14:18:05.734Z,15.20
2023-03-30T14:20:38.997Z,15.20
2023-03-30T14:23:07.169Z,15.20
2023-03-30T14:25:39.238Z,15.30
2023-03-30T14:28:21.375Z,15.30
2023-03-30T14:30:51.397Z,15.30
2023-03-30T14:33:19.163Z,15.30
2023-03-30T14:36:00.560Z,15.30
2023-03-30T14:38:34.945Z,15.30
2023-03-30T14:41:02.501Z,15.30
2023-03-30T14:43:32.214Z,15.30
2023-03-30T14:46:04.879Z,15.30
2023-03-30T14:48:44.346Z,15.40
2023-03-30T14:55:06.077Z,15.30
2023-03-30T14:57:41.365Z,15.30
2023-03-30T15:00:26.096Z,15.30
2023-03-30T15:03:19.677Z,15.30
2023-03-30T15:05:54.172Z,15.40
2023-03-30T15:08:31.655Z,15.40
2023-03-30T15:11:24.494Z,15.50
2023-03-30T15:20:37.869Z,16.00
2023-03-30T15:25:51.992Z,16.10
2023-03-30T15:31:29.442Z,16.10
2023-03-30T15:34:02.218Z,16.00
2023-03-30T15:36:42.072Z,16.00
2023-03-30T15:39:25.048Z,15.90
2023-03-30T15:42:07.954Z,15.90
2023-03-30T15:44:43.551Z,15.80
2023-03-30T15:47:19.462Z,15.80
2023-03-30T15:49:56.650Z,15.70
2023-03-30T15:52:29.404Z,15.70
2023-03-30T15:54:57.648Z,15.60
2023-03-30T15:57:33.214Z,15.50
2023-03-30T16:00:09.412Z,15.50
2023-03-30T16:02:46.986Z,15.50
2023-03-30T16:05:21.462Z,15.40
2023-03-30T16:07:49.390Z,15.30
2023-03-30T16:10:24.682Z,15.30
2023-03-30T16:12:53.038Z,15.20
2023-03-30T16:15:29.438Z,15.20
2023-03-30T16:17:57.047Z,15.20
2023-03-30T16:20:30.732Z,15.10
2023-03-30T16:22:58.416Z,15.00
2023-03-30T16:27:58.943Z,14.90
2023-03-30T16:30:34.447Z,14.90
2023-03-30T16:33:02.886Z,14.80
2023-03-30T16:35:31.235Z,14.80
2023-03-30T16:37:59.290Z,14.70
2023-03-30T16:40:52.800Z,14.70
2023-03-30T16:43:20.013Z,14.60
2023-03-30T16:45:47.321Z,14.50
2023-03-30T16:48:15.610Z,14.50
2023-03-30T16:50:57.323Z,14.40
2023-03-30T16:53:24.970Z,14.40
2023-03-30T16:55:53.349Z,14.40
2023-03-30T16:58:20.651Z,14.30
2023-03-30T17:00:51.442Z,14.30
2023-03-30T17:03:19.522Z,14.30
2023-03-30T17:05:51.565Z,14.20
2023-03-30T17:08:30.304Z,14.10
2023-03-30T17:11:04.074Z,14.10
2023-03-30T17:13:32.482Z,14.00
2023-03-30T17:16:03.031Z,13.90
2023-03-30T17:18:31.097Z,13.90
2023-03-30T17:21:00.816Z,13.80
2023-03-30T17:23:31.463Z,13.70
2023-03-30T17:26:00.444Z,13.60
2023-03-30T17:28:30.409Z,13.50
2023-03-30T17:31:03.348Z,13.50
2023-03-30T17:33:31.996Z,13.40
2023-03-30T17:36:02.152Z,13.40
2023-03-30T17:38:32.745Z,13.40
2023-03-30T17:40:59.816Z,13.30
2023-03-30T17:43:27.096Z,13.30
2023-03-30T17:45:54.508Z,13.30
2023-03-30T17:48:22.522Z,13.20
2023-03-30T17:50:50.995Z,13.10
2023-03-30T17:53:21.191Z,13.20
2023-03-30T17:55:52.225Z,13.10
2023-03-30T17:58:29.636Z,13.10
2023-03-30T18:00:56.855Z,13.00
2023-03-30T18:03:25.989Z,13.00
2023-03-30T18:05:54.243Z,12.90
2023-03-30T18:08:24.132Z,12.90
2023-03-30T18:10:53.673Z,12.90
2023-03-30T18:13:22.434Z,12.80
2023-03-30T18:15:52.122Z,12.80
2023-03-30T18:18:25.293Z,12.70
2023-03-30T18:20:57.545Z,12.70
2023-03-30T18:23:25.121Z,12.70
2023-03-30T18:25:52.767Z,12.60
2023-03-30T18:28:23.060Z,12.60
2023-03-30T18:30:51.406Z,12.60
2023-03-30T18:33:18.908Z,12.60
2023-03-30T18:35:48.212Z,12.60
2023-03-30T18:38:18.161Z,12.60
2023-03-30T18:40:47.584Z,12.60
2023-03-30T18:43:15.188Z,12.70
2023-03-30T18:45:50.403Z,12.60
2023-03-30T18:48:21.647Z,12.60
2023-03-30T18:50:54.210Z,12.60
2023-03-30T18:53:26.520Z,12.60
2023-03-30T18:55:57.673Z,12.60
2023-03-30T18:58:27.805Z,12.60
2023-03-30T19:00:56.084Z,12.50
2023-03-30T19:03:24.602Z,12.50
2023-03-30T19:05:51.924Z,12.40
2023-03-30T19:08:22.404Z,12.30
2023-03-30T19:10:52.166Z,12.20
2023-03-30T19:13:21.344Z,12.20
2023-03-30T19:15:50.266Z,12.20
2023-03-30T19:18:18.427Z,12.10
2023-03-30T19:20:46.512Z,12.10
2023-03-30T19:23:16.264Z,12.10
2023-03-30T19:25:44.924Z,12.10
2023-03-30T19:28:13.689Z,12.00
2023-03-30T19:30:43.605Z,12.00
2023-03-30T19:33:15.187Z,12.00
2023-03-30T19:35:44.806Z,12.00
2023-03-30T19:38:12.494Z,12.00
2023-03-30T19:40:40.774Z,12.00
2023-03-30T19:43:08.867Z,12.00
2023-03-30T19:45:36.482Z,11.90
2023-03-30T19:48:04.491Z,11.90
2023-03-30T19:50:31.946Z,11.90
2023-03-30T19:52:59.753Z,11.90
2023-03-30T19:55:27.967Z,11.90
2023-03-30T19:57:56.240Z,11.80
2023-03-30T20:00:24.102Z,11.80
2023-03-30T20:02:53.661Z,11.80
2023-03-30T20:05:23.219Z,11.80
2023-03-30T20:07:50.824Z,11.80
2023-03-30T20:10:21.623Z,11.80
2023-03-30T20:12:50.180Z,11.80
2023-03-30T20:15:18.262Z,11.80
2023-03-30T20:17:45.763Z,11.70
2023-03-30T20:20:17.546Z,11.70
2023-03-30T20:22:45.062Z,11.70
2023-03-30T20:25:14.552Z,11.70
2023-03-30T20:27:42.132Z,11.70
2023-03-30T20:30:11.825Z,11.70
2023-03-30T20:32:39.589Z,11.70
2023-03-30T20:35:08.434Z,11.70
2023-03-30T20:37:35.712Z,11.70
2023-03-30T20:40:09.982Z,11.70
2023-03-30T20:42:40.890Z,11.70
2023-03-30T20:45:09.488Z,11.70
2023-03-30T20:47:37.089Z,11.60
2023-03-30T20:50:05.916Z,11.70
2023-03-30T20:52:33.318Z,11.60
2023-03-30T20:55:00.497Z,11.70
2023-03-30T20:57:27.757Z,11.60
2023-03-30T20:59:55.142Z,11.60
2023-03-30T21:02:22.704Z,11.60
2023-03-30T21:04:50.630Z,11.60
2023-03-30T21:07:18.377Z,11.60
2023-03-30T21:09:45.829Z,11.60
2023-03-30T21:12:13.021Z,11.60
2023-03-30T21:14:40.089Z,11.60
2023-03-30T21:17:08.074Z,11.60
2023-03-30T21:19:36.026Z,11.50
2023-03-30T21:22:04.090Z,11.50
2023-03-30T21:24:31.338Z,11.50
2023-03-30T21:26:58.683Z,11.50
2023-03-30T21:29:26.133Z,11.50
2023-03-30T21:31:53.355Z,11.40
2023-03-30T21:34:22.520Z,11.40
2023-03-30T21:36:50.289Z,11.40
2023-03-30T21:39:17.940Z,11.40
2023-03-30T21:41:45.670Z,11.40
2023-03-30T21:44:12.997Z,11.40
2023-03-30T21:46:40.406Z,11.40
2023-03-30T21:49:08.069Z,11.40
2023-03-30T21:51:35.473Z,11.30
2023-03-30T21:54:02.848Z,11.30
2023-03-30T21:56:31.526Z,11.30
2023-03-30T21:58:59.786Z,11.30
2023-03-30T22:01:27.128Z,11.30
2023-03-30T22:03:56.223Z,11.30
2023-03-30T22:06:23.994Z,11.30
2023-03-30T22:08:51.596Z,11.30
2023-03-30T22:11:21.653Z,11.30
2023-03-30T22:13:49.949Z,11.30
2023-03-30T22:16:28.689Z,11.30
2023-03-30T22:18:56.105Z,11.30
2023-03-30T22:21:25.736Z,11.30
2023-03-30T22:23:55.081Z,11.30
2023-03-30T22:26:22.653Z,11.30
2023-03-30T22:28:49.821Z,11.30
2023-03-30T22:31:17.100Z,11.30
2023-03-30T22:33:45.291Z,11.30
2023-03-30T22:36:24.836Z,11.30
2023-03-30T22:38:52.487Z,11.20
2023-03-30T22:41:24.414Z,11.30
2023-03-30T22:43:53.166Z,11.30
2023-03-30T22:46:21.515Z,11.30
2023-03-30T22:48:52.858Z,11.30
2023-03-30T22:51:27.028Z,11.30
2023-03-30T22:53:59.674Z,11.30
2023-03-30T22:56:28.069Z,11.30
2023-03-30T22:58:56.353Z,11.30
2023-03-30T23:01:24.021Z,11.30
2023-03-30T23:03:53.534Z,11.20
2023-03-30T23:06:21.002Z,11.20
2023-03-30T23:08:49.125Z,11.30
2023-03-30T23:11:17.007Z,11.20
2023-03-30T23:13:44.589Z,11.20
2023-03-30T23:16:11.866Z,11.20
2023-03-30T23:18:39.717Z,11.20
2023-03-30T23:21:08.028Z,11.20
2023-03-30T23:23:39.152Z,11.20
2023-03-30T23:26:09.699Z,11.20
2023-03-30T23:28:39.873Z,11.20
2023-03-30T23:31:12.655Z,11.20
2023-03-30T23:33:40.773Z,11.20
2023-03-30T23:36:09.556Z,11.20
2023-03-30T23:38:37.812Z,11.20
2023-03-30T23:41:06.584Z,11.20
2023-03-30T23:43:33.988Z,11.20
2023-03-30T23:46:01.481Z,11.30
2023-03-30T23:48:29.164Z,11.30
2023-03-30T23:50:57.559Z,11.30
2023-03-30T23:53:26.892Z,11.20
2023-03-30T23:55:54.883Z,11.20
2023-03-30T23:58:22.414Z,11.20
